Airfield :
LOGIN :

Register | Disclaimer

   EN    FR    IT 

 










Legend :    VFR   Marginal VFR   IFR   Intensive IFR   Very Intensive IFR
Visi :
Ceiling :
>= 8 km
>= 3000ft
5 to 8 km
1000 to 3000 ft
1500m to 5 km
500 to 1000 ft
800 to 1500m
200 to 500 ft
< 800m
< 200 ft
Symbols :   Thunderstorms  Fog  Heavy snow  Heavy precipitations  Wind > 20 kt
SIGMETs :     Misc.  Thunderstorms  Icing  Turbulence  Mountain Waves  Volcanic Ashes






- Airport Elevation : 609 ft
- IATA code : BJZ


LEBZ - Badajoz

CURRENT METAR :
  • 181100Z 18013KT 140V210 9999 SCT040 24/14 Q1010

EXPIRED METARs :
  • 181030Z 15010KT 120V180 9999 SCT040 23/15 Q1011
  • 181000Z 12009KT 080V150 9999 SCT040 23/15 Q1010
  • 180930Z 10008KT 070V130 CAVOK 22/15 Q1010
  • 180900Z 11010KT 080V140 CAVOK 21/14 Q1011
  • 180830Z 11010KT 080V140 CAVOK 21/15 Q1011
  • 180800Z 09006KT CAVOK 20/16 Q1011

TAF AMD TAF LEBZ
Valid from the 18 at 08:00 until the 19 at 06:00 UTC


180817Z 1808/1906 11009KT 9999 SCT035 TX27/1815Z TN18/1906Z
BECMG 1808/1810 21010KT
PROB40
TEMPO 1809/1818 3000 SHRA SCT025TCU BKN045
PROB30
TEMPO 1809/1815 22020G30KT 2000 TSRA SCT020CB BKN030



MET'MAP, your aeronautical weather chart ! - Copyright ORBIFLY December 2007 - Disclaimer

ORBIFLY MET'MAP TEAM :

Programming & Development : Alexandra Zaïnal
Concept & original design : Baudouin d'Aumeries
Assistance for programming : Marc-Olivier Méhu
Technical & hardware support : Manuel Goepfert

Contact : metmap@orbifly.com




SOURCES & CREDITS :

   NOAA